sensor_id;sensor_type;location;lat;lon;timestamp;P1;durP1;ratioP1;P2;durP2;ratioP2
8407;SDS011;4241;48.452;9.216;2022-12-18T00:02:15;219.73;;;74.45;;
8407;SDS011;4241;48.452;9.216;2022-12-18T00:04:42;227.70;;;79.00;;
8407;SDS011;4241;48.452;9.216;2022-12-18T00:07:10;220.05;;;74.22;;
8407;SDS011;4241;48.452;9.216;2022-12-18T00:09:37;224.77;;;77.47;;
8407;SDS011;4241;48.452;9.216;2022-12-18T00:12:04;220.23;;;74.95;;
8407;SDS011;4241;48.452;9.216;2022-12-18T00:14:31;221.47;;;74.97;;
8407;SDS011;4241;48.452;9.216;2022-12-18T00:16:58;224.27;;;76.18;;
8407;SDS011;4241;48.452;9.216;2022-12-18T00:19:25;224.07;;;75.93;;
8407;SDS011;4241;48.452;9.216;2022-12-18T00:21:53;228.52;;;77.10;;
8407;SDS011;4241;48.452;9.216;2022-12-18T00:24:21;243.50;;;81.73;;
8407;SDS011;4241;48.452;9.216;2022-12-18T00:26:48;210.50;;;72.83;;
8407;SDS011;4241;48.452;9.216;2022-12-18T00:29:15;199.40;;;70.13;;
8407;SDS011;4241;48.452;9.216;2022-12-18T00:31:42;197.63;;;68.93;;
8407;SDS011;4241;48.452;9.216;2022-12-18T00:34:09;199.37;;;69.77;;
8407;SDS011;4241;48.452;9.216;2022-12-18T00:36:37;197.50;;;69.57;;
8407;SDS011;4241;48.452;9.216;2022-12-18T00:39:05;197.10;;;69.10;;
8407;SDS011;4241;48.452;9.216;2022-12-18T00:41:33;195.97;;;69.00;;
8407;SDS011;4241;48.452;9.216;2022-12-18T00:44:17;197.93;;;70.57;;
8407;SDS011;4241;48.452;9.216;2022-12-18T00:46:45;194.17;;;68.07;;
8407;SDS011;4241;48.452;9.216;2022-12-18T00:49:13;197.30;;;70.37;;
8407;SDS011;4241;48.452;9.216;2022-12-18T00:51:41;194.87;;;69.03;;
8407;SDS011;4241;48.452;9.216;2022-12-18T00:54:07;194.73;;;68.73;;
8407;SDS011;4241;48.452;9.216;2022-12-18T00:56:36;193.63;;;68.40;;
8407;SDS011;4241;48.452;9.216;2022-12-18T00:59:03;199.80;;;71.83;;
8407;SDS011;4241;48.452;9.216;2022-12-18T01:01:30;192.57;;;68.53;;
8407;SDS011;4241;48.452;9.216;2022-12-18T01:03:59;197.23;;;70.83;;
8407;SDS011;4241;48.452;9.216;2022-12-18T01:06:26;197.23;;;69.80;;
8407;SDS011;4241;48.452;9.216;2022-12-18T01:08:53;197.03;;;70.03;;
8407;SDS011;4241;48.452;9.216;2022-12-18T01:11:20;199.80;;;71.10;;
8407;SDS011;4241;48.452;9.216;2022-12-18T01:13:49;194.37;;;68.93;;
8407;SDS011;4241;48.452;9.216;2022-12-18T01:16:18;199.23;;;70.80;;
8407;SDS011;4241;48.452;9.216;2022-12-18T01:18:45;194.97;;;69.07;;
8407;SDS011;4241;48.452;9.216;2022-12-18T01:21:16;200.10;;;72.30;;
8407;SDS011;4241;48.452;9.216;2022-12-18T01:23:46;197.33;;;69.40;;
8407;SDS011;4241;48.452;9.216;2022-12-18T01:26:17;199.37;;;70.13;;
8407;SDS011;4241;48.452;9.216;2022-12-18T01:28:44;199.37;;;70.27;;
8407;SDS011;4241;48.452;9.216;2022-12-18T01:31:13;206.00;;;72.97;;
8407;SDS011;4241;48.452;9.216;2022-12-18T01:33:42;206.13;;;72.13;;
8407;SDS011;4241;48.452;9.216;2022-12-18T01:36:14;202.67;;;70.43;;
8407;SDS011;4241;48.452;9.216;2022-12-18T01:38:42;199.33;;;69.90;;
8407;SDS011;4241;48.452;9.216;2022-12-18T01:41:09;200.37;;;70.30;;
8407;SDS011;4241;48.452;9.216;2022-12-18T01:43:43;201.67;;;70.83;;
8407;SDS011;4241;48.452;9.216;2022-12-18T01:46:17;195.80;;;69.27;;
8407;SDS011;4241;48.452;9.216;2022-12-18T01:48:45;197.80;;;69.57;;
8407;SDS011;4241;48.452;9.216;2022-12-18T01:51:16;202.87;;;72.33;;
8407;SDS011;4241;48.452;9.216;2022-12-18T01:53:43;199.17;;;70.70;;
8407;SDS011;4241;48.452;9.216;2022-12-18T01:56:14;195.67;;;68.80;;
8407;SDS011;4241;48.452;9.216;2022-12-18T01:58:48;197.20;;;69.37;;
8407;SDS011;4241;48.452;9.216;2022-12-18T02:01:21;201.33;;;71.27;;
8407;SDS011;4241;48.452;9.216;2022-12-18T02:03:49;201.93;;;70.83;;
8407;SDS011;4241;48.452;9.216;2022-12-18T02:06:17;206.87;;;72.60;;
8407;SDS011;4241;48.452;9.216;2022-12-18T02:08:49;202.13;;;70.00;;
8407;SDS011;4241;48.452;9.216;2022-12-18T02:11:24;205.50;;;72.30;;
8407;SDS011;4241;48.452;9.216;2022-12-18T02:14:07;200.77;;;69.73;;
8407;SDS011;4241;48.452;9.216;2022-12-18T02:16:44;203.27;;;70.77;;
8407;SDS011;4241;48.452;9.216;2022-12-18T02:19:20;204.17;;;71.37;;
8407;SDS011;4241;48.452;9.216;2022-12-18T02:22:15;200.50;;;70.60;;
8407;SDS011;4241;48.452;9.216;2022-12-18T02:24:54;210.50;;;74.60;;
8407;SDS011;4241;48.452;9.216;2022-12-18T02:27:32;200.90;;;69.93;;
8407;SDS011;4241;48.452;9.216;2022-12-18T02:30:01;198.20;;;69.97;;
8407;SDS011;4241;48.452;9.216;2022-12-18T02:32:30;196.10;;;69.33;;
8407;SDS011;4241;48.452;9.216;2022-12-18T02:35:00;203.93;;;73.43;;
8407;SDS011;4241;48.452;9.216;2022-12-18T02:37:30;206.10;;;73.00;;
8407;SDS011;4241;48.452;9.216;2022-12-18T02:39:59;207.03;;;73.83;;
8407;SDS011;4241;48.452;9.216;2022-12-18T02:42:28;201.83;;;69.93;;
8407;SDS011;4241;48.452;9.216;2022-12-18T02:44:56;214.10;;;75.93;;
8407;SDS011;4241;48.452;9.216;2022-12-18T02:47:24;202.07;;;71.37;;
8407;SDS011;4241;48.452;9.216;2022-12-18T02:49:56;204.77;;;71.17;;
8407;SDS011;4241;48.452;9.216;2022-12-18T02:52:31;200.30;;;69.70;;
8407;SDS011;4241;48.452;9.216;2022-12-18T02:55:08;201.27;;;70.37;;
8407;SDS011;4241;48.452;9.216;2022-12-18T02:57:42;203.97;;;71.13;;
8407;SDS011;4241;48.452;9.216;2022-12-18T03:00:16;204.27;;;71.20;;
8407;SDS011;4241;48.452;9.216;2022-12-18T03:02:48;201.90;;;70.77;;
8407;SDS011;4241;48.452;9.216;2022-12-18T03:05:20;205.00;;;71.53;;
8407;SDS011;4241;48.452;9.216;2022-12-18T03:07:51;205.27;;;70.40;;
8407;SDS011;4241;48.452;9.216;2022-12-18T03:10:23;210.63;;;71.63;;
8407;SDS011;4241;48.452;9.216;2022-12-18T03:12:54;213.63;;;73.40;;
8407;SDS011;4241;48.452;9.216;2022-12-18T03:15:28;209.03;;;71.43;;
8407;SDS011;4241;48.452;9.216;2022-12-18T03:18:01;205.27;;;71.23;;
8407;SDS011;4241;48.452;9.216;2022-12-18T03:20:33;205.53;;;71.87;;
8407;SDS011;4241;48.452;9.216;2022-12-18T03:23:03;202.83;;;71.53;;
8407;SDS011;4241;48.452;9.216;2022-12-18T03:25:34;202.17;;;70.90;;
8407;SDS011;4241;48.452;9.216;2022-12-18T03:28:04;200.37;;;70.07;;
8407;SDS011;4241;48.452;9.216;2022-12-18T03:30:35;197.17;;;69.27;;
8407;SDS011;4241;48.452;9.216;2022-12-18T03:33:05;199.23;;;69.73;;
8407;SDS011;4241;48.452;9.216;2022-12-18T03:35:37;198.30;;;70.43;;
8407;SDS011;4241;48.452;9.216;2022-12-18T03:38:06;196.43;;;69.17;;
8407;SDS011;4241;48.452;9.216;2022-12-18T03:40:35;200.13;;;70.67;;
8407;SDS011;4241;48.452;9.216;2022-12-18T03:43:10;197.07;;;69.37;;
8407;SDS011;4241;48.452;9.216;2022-12-18T03:45:45;197.93;;;70.53;;
8407;SDS011;4241;48.452;9.216;2022-12-18T03:48:17;193.80;;;68.47;;
8407;SDS011;4241;48.452;9.216;2022-12-18T03:50:51;193.13;;;68.40;;
8407;SDS011;4241;48.452;9.216;2022-12-18T03:53:24;193.67;;;69.30;;
8407;SDS011;4241;48.452;9.216;2022-12-18T03:55:57;192.70;;;68.27;;
8407;SDS011;4241;48.452;9.216;2022-12-18T03:58:26;192.73;;;68.57;;
8407;SDS011;4241;48.452;9.216;2022-12-18T04:00:56;188.87;;;67.47;;
8407;SDS011;4241;48.452;9.216;2022-12-18T04:03:27;194.20;;;69.63;;
8407;SDS011;4241;48.452;9.216;2022-12-18T04:05:56;192.83;;;68.33;;
8407;SDS011;4241;48.452;9.216;2022-12-18T04:08:25;191.83;;;68.20;;
8407;SDS011;4241;48.452;9.216;2022-12-18T04:10:52;187.07;;;67.43;;
8407;SDS011;4241;48.452;9.216;2022-12-18T04:13:22;178.23;;;65.20;;
8407;SDS011;4241;48.452;9.216;2022-12-18T04:15:50;174.43;;;63.90;;
8407;SDS011;4241;48.452;9.216;2022-12-18T04:18:18;174.13;;;64.07;;
8407;SDS011;4241;48.452;9.216;2022-12-18T04:20:45;170.67;;;63.10;;
8407;SDS011;4241;48.452;9.216;2022-12-18T04:23:12;171.77;;;64.53;;
8407;SDS011;4241;48.452;9.216;2022-12-18T04:25:39;170.17;;;63.17;;
8407;SDS011;4241;48.452;9.216;2022-12-18T04:28:06;172.47;;;62.97;;
8407;SDS011;4241;48.452;9.216;2022-12-18T04:30:33;168.50;;;62.13;;
8407;SDS011;4241;48.452;9.216;2022-12-18T04:33:00;171.23;;;63.17;;
8407;SDS011;4241;48.452;9.216;2022-12-18T04:35:28;169.70;;;62.22;;
8407;SDS011;4241;48.452;9.216;2022-12-18T04:37:55;167.35;;;62.30;;
8407;SDS011;4241;48.452;9.216;2022-12-18T04:40:22;167.85;;;61.90;;
8407;SDS011;4241;48.452;9.216;2022-12-18T04:42:49;170.27;;;63.17;;
8407;SDS011;4241;48.452;9.216;2022-12-18T04:45:16;178.10;;;66.77;;
8407;SDS011;4241;48.452;9.216;2022-12-18T04:47:42;175.32;;;63.88;;
8407;SDS011;4241;48.452;9.216;2022-12-18T04:50:09;177.67;;;64.60;;
8407;SDS011;4241;48.452;9.216;2022-12-18T04:52:38;171.43;;;63.03;;
8407;SDS011;4241;48.452;9.216;2022-12-18T04:55:05;163.97;;;61.57;;
8407;SDS011;4241;48.452;9.216;2022-12-18T04:57:32;165.37;;;61.90;;
8407;SDS011;4241;48.452;9.216;2022-12-18T04:59:59;166.70;;;62.70;;
8407;SDS011;4241;48.452;9.216;2022-12-18T05:02:26;164.67;;;61.93;;
8407;SDS011;4241;48.452;9.216;2022-12-18T05:04:53;177.30;;;67.37;;
8407;SDS011;4241;48.452;9.216;2022-12-18T05:07:20;172.37;;;64.47;;
8407;SDS011;4241;48.452;9.216;2022-12-18T05:09:48;168.97;;;62.37;;
8407;SDS011;4241;48.452;9.216;2022-12-18T05:12:15;171.63;;;63.00;;
8407;SDS011;4241;48.452;9.216;2022-12-18T05:14:42;180.47;;;67.57;;
8407;SDS011;4241;48.452;9.216;2022-12-18T05:17:09;175.97;;;64.47;;
8407;SDS011;4241;48.452;9.216;2022-12-18T05:19:39;168.20;;;62.00;;
8407;SDS011;4241;48.452;9.216;2022-12-18T05:22:09;166.48;;;62.33;;
8407;SDS011;4241;48.452;9.216;2022-12-18T05:24:36;172.07;;;64.38;;
8407;SDS011;4241;48.452;9.216;2022-12-18T05:27:04;168.57;;;62.67;;
8407;SDS011;4241;48.452;9.216;2022-12-18T05:29:31;170.98;;;63.25;;
8407;SDS011;4241;48.452;9.216;2022-12-18T05:31:58;172.57;;;63.87;;
8407;SDS011;4241;48.452;9.216;2022-12-18T05:34:25;173.50;;;63.23;;
8407;SDS011;4241;48.452;9.216;2022-12-18T05:36:51;175.03;;;64.27;;
8407;SDS011;4241;48.452;9.216;2022-12-18T05:39:18;181.23;;;65.80;;
8407;SDS011;4241;48.452;9.216;2022-12-18T05:41:45;192.33;;;68.63;;
8407;SDS011;4241;48.452;9.216;2022-12-18T05:44:14;198.30;;;69.33;;
8407;SDS011;4241;48.452;9.216;2022-12-18T05:46:40;203.00;;;70.63;;
8407;SDS011;4241;48.452;9.216;2022-12-18T05:49:07;207.03;;;72.83;;
8407;SDS011;4241;48.452;9.216;2022-12-18T05:51:35;206.40;;;71.50;;
8407;SDS011;4241;48.452;9.216;2022-12-18T05:54:01;209.60;;;72.93;;
8407;SDS011;4241;48.452;9.216;2022-12-18T05:56:28;210.07;;;71.90;;
8407;SDS011;4241;48.452;9.216;2022-12-18T05:58:55;217.97;;;74.57;;
8407;SDS011;4241;48.452;9.216;2022-12-18T06:01:24;220.97;;;75.27;;
8407;SDS011;4241;48.452;9.216;2022-12-18T06:03:52;210.40;;;72.67;;
8407;SDS011;4241;48.452;9.216;2022-12-18T06:06:20;214.60;;;74.30;;
8407;SDS011;4241;48.452;9.216;2022-12-18T06:08:48;211.77;;;72.13;;
8407;SDS011;4241;48.452;9.216;2022-12-18T06:11:16;214.20;;;73.93;;
8407;SDS011;4241;48.452;9.216;2022-12-18T06:13:44;214.17;;;74.13;;
8407;SDS011;4241;48.452;9.216;2022-12-18T06:16:11;216.67;;;73.93;;
8407;SDS011;4241;48.452;9.216;2022-12-18T06:18:39;214.97;;;72.90;;
8407;SDS011;4241;48.452;9.216;2022-12-18T06:21:06;215.77;;;72.87;;
8407;SDS011;4241;48.452;9.216;2022-12-18T06:23:34;215.33;;;73.20;;
8407;SDS011;4241;48.452;9.216;2022-12-18T06:26:03;212.13;;;72.97;;
8407;SDS011;4241;48.452;9.216;2022-12-18T06:28:31;215.00;;;74.03;;
8407;SDS011;4241;48.452;9.216;2022-12-18T06:30:58;211.40;;;73.03;;
8407;SDS011;4241;48.452;9.216;2022-12-18T06:33:25;206.67;;;71.57;;
8407;SDS011;4241;48.452;9.216;2022-12-18T06:35:58;208.27;;;72.60;;
8407;SDS011;4241;48.452;9.216;2022-12-18T06:38:26;213.80;;;74.83;;
8407;SDS011;4241;48.452;9.216;2022-12-18T06:40:53;215.83;;;73.93;;
8407;SDS011;4241;48.452;9.216;2022-12-18T06:43:20;218.83;;;74.63;;
8407;SDS011;4241;48.452;9.216;2022-12-18T06:45:47;224.77;;;75.23;;
8407;SDS011;4241;48.452;9.216;2022-12-18T06:48:17;229.13;;;76.87;;
8407;SDS011;4241;48.452;9.216;2022-12-18T06:50:44;225.00;;;76.00;;
8407;SDS011;4241;48.452;9.216;2022-12-18T06:53:12;227.40;;;76.20;;
8407;SDS011;4241;48.452;9.216;2022-12-18T06:55:39;232.87;;;78.13;;
8407;SDS011;4241;48.452;9.216;2022-12-18T06:58:06;227.73;;;76.07;;
8407;SDS011;4241;48.452;9.216;2022-12-18T07:00:33;229.10;;;77.27;;
8407;SDS011;4241;48.452;9.216;2022-12-18T07:03:00;233.33;;;79.63;;
8407;SDS011;4241;48.452;9.216;2022-12-18T07:05:27;227.57;;;76.20;;
8407;SDS011;4241;48.452;9.216;2022-12-18T07:07:54;226.93;;;75.43;;
8407;SDS011;4241;48.452;9.216;2022-12-18T07:10:22;227.33;;;76.80;;
8407;SDS011;4241;48.452;9.216;2022-12-18T07:12:49;224.03;;;74.23;;
8407;SDS011;4241;48.452;9.216;2022-12-18T07:15:16;228.93;;;76.80;;
8407;SDS011;4241;48.452;9.216;2022-12-18T07:17:43;227.30;;;75.53;;
8407;SDS011;4241;48.452;9.216;2022-12-18T07:20:10;229.37;;;76.60;;
8407;SDS011;4241;48.452;9.216;2022-12-18T07:22:37;225.70;;;76.00;;
8407;SDS011;4241;48.452;9.216;2022-12-18T07:25:04;228.47;;;76.87;;
8407;SDS011;4241;48.452;9.216;2022-12-18T07:27:33;234.10;;;78.17;;
8407;SDS011;4241;48.452;9.216;2022-12-18T07:30:01;233.77;;;77.23;;
8407;SDS011;4241;48.452;9.216;2022-12-18T07:32:27;238.23;;;77.77;;
8407;SDS011;4241;48.452;9.216;2022-12-18T07:34:56;243.67;;;81.47;;
8407;SDS011;4241;48.452;9.216;2022-12-18T07:37:23;231.87;;;76.63;;
8407;SDS011;4241;48.452;9.216;2022-12-18T07:39:50;237.13;;;79.37;;
8407;SDS011;4241;48.452;9.216;2022-12-18T07:42:17;235.20;;;78.17;;
8407;SDS011;4241;48.452;9.216;2022-12-18T07:44:57;238.53;;;79.67;;
8407;SDS011;4241;48.452;9.216;2022-12-18T07:47:24;233.27;;;75.70;;
8407;SDS011;4241;48.452;9.216;2022-12-18T07:49:51;236.30;;;77.53;;
8407;SDS011;4241;48.452;9.216;2022-12-18T07:52:18;232.80;;;76.97;;
8407;SDS011;4241;48.452;9.216;2022-12-18T07:54:45;246.10;;;84.50;;
8407;SDS011;4241;48.452;9.216;2022-12-18T07:57:14;230.20;;;76.80;;
8407;SDS011;4241;48.452;9.216;2022-12-18T07:59:41;236.17;;;79.13;;
8407;SDS011;4241;48.452;9.216;2022-12-18T08:02:09;233.17;;;76.63;;
8407;SDS011;4241;48.452;9.216;2022-12-18T08:04:36;239.03;;;79.50;;
8407;SDS011;4241;48.452;9.216;2022-12-18T08:07:02;235.47;;;76.90;;
8407;SDS011;4241;48.452;9.216;2022-12-18T08:09:30;243.70;;;80.03;;
8407;SDS011;4241;48.452;9.216;2022-12-18T08:11:56;238.27;;;78.20;;
8407;SDS011;4241;48.452;9.216;2022-12-18T08:14:24;241.13;;;78.30;;
8407;SDS011;4241;48.452;9.216;2022-12-18T08:16:51;238.83;;;78.43;;
8407;SDS011;4241;48.452;9.216;2022-12-18T08:19:19;242.87;;;79.43;;
8407;SDS011;4241;48.452;9.216;2022-12-18T08:21:46;242.67;;;79.10;;
8407;SDS011;4241;48.452;9.216;2022-12-18T08:24:13;244.97;;;80.23;;
8407;SDS011;4241;48.452;9.216;2022-12-18T08:26:40;241.90;;;79.23;;
8407;SDS011;4241;48.452;9.216;2022-12-18T08:29:06;248.23;;;82.10;;
8407;SDS011;4241;48.452;9.216;2022-12-18T08:31:34;242.77;;;79.03;;
8407;SDS011;4241;48.452;9.216;2022-12-18T08:34:01;243.67;;;79.30;;
8407;SDS011;4241;48.452;9.216;2022-12-18T08:36:30;250.53;;;82.17;;
8407;SDS011;4241;48.452;9.216;2022-12-18T08:38:57;256.23;;;82.70;;
8407;SDS011;4241;48.452;9.216;2022-12-18T08:41:24;288.63;;;91.13;;
8407;SDS011;4241;48.452;9.216;2022-12-18T08:43:51;282.73;;;89.63;;
8407;SDS011;4241;48.452;9.216;2022-12-18T08:46:36;278.50;;;88.47;;
8407;SDS011;4241;48.452;9.216;2022-12-18T08:49:04;279.83;;;89.20;;
8407;SDS011;4241;48.452;9.216;2022-12-18T08:51:34;270.53;;;86.73;;
8407;SDS011;4241;48.452;9.216;2022-12-18T08:54:01;268.90;;;85.90;;
8407;SDS011;4241;48.452;9.216;2022-12-18T08:56:29;270.47;;;86.17;;
8407;SDS011;4241;48.452;9.216;2022-12-18T08:58:56;267.20;;;84.43;;
8407;SDS011;4241;48.452;9.216;2022-12-18T09:01:23;272.13;;;86.10;;
8407;SDS011;4241;48.452;9.216;2022-12-18T09:03:50;273.43;;;86.00;;
8407;SDS011;4241;48.452;9.216;2022-12-18T09:06:18;267.43;;;84.80;;
8407;SDS011;4241;48.452;9.216;2022-12-18T09:08:47;270.90;;;85.80;;
8407;SDS011;4241;48.452;9.216;2022-12-18T09:11:15;273.20;;;86.10;;
8407;SDS011;4241;48.452;9.216;2022-12-18T09:13:46;275.63;;;86.60;;
8407;SDS011;4241;48.452;9.216;2022-12-18T09:16:13;269.77;;;85.63;;
8407;SDS011;4241;48.452;9.216;2022-12-18T09:18:42;262.90;;;83.60;;
8407;SDS011;4241;48.452;9.216;2022-12-18T09:21:10;253.70;;;82.07;;
8407;SDS011;4241;48.452;9.216;2022-12-18T09:23:38;249.03;;;80.90;;
8407;SDS011;4241;48.452;9.216;2022-12-18T09:26:07;244.03;;;79.43;;
8407;SDS011;4241;48.452;9.216;2022-12-18T09:28:34;243.77;;;79.47;;
8407;SDS011;4241;48.452;9.216;2022-12-18T09:31:03;243.23;;;79.13;;
8407;SDS011;4241;48.452;9.216;2022-12-18T09:33:31;237.57;;;77.00;;
8407;SDS011;4241;48.452;9.216;2022-12-18T09:36:00;239.87;;;77.70;;
8407;SDS011;4241;48.452;9.216;2022-12-18T09:38:28;243.83;;;79.67;;
8407;SDS011;4241;48.452;9.216;2022-12-18T09:40:56;243.33;;;79.40;;
8407;SDS011;4241;48.452;9.216;2022-12-18T09:43:28;242.90;;;79.67;;
8407;SDS011;4241;48.452;9.216;2022-12-18T09:46:02;241.07;;;78.60;;
8407;SDS011;4241;48.452;9.216;2022-12-18T09:48:30;246.60;;;80.57;;
8407;SDS011;4241;48.452;9.216;2022-12-18T09:51:02;256.77;;;84.97;;
8407;SDS011;4241;48.452;9.216;2022-12-18T09:53:37;245.47;;;79.80;;
8407;SDS011;4241;48.452;9.216;2022-12-18T09:56:17;246.20;;;79.73;;
8407;SDS011;4241;48.452;9.216;2022-12-18T09:58:50;244.30;;;79.80;;
8407;SDS011;4241;48.452;9.216;2022-12-18T10:01:21;256.23;;;83.60;;
8407;SDS011;4241;48.452;9.216;2022-12-18T10:03:49;251.93;;;80.80;;
8407;SDS011;4241;48.452;9.216;2022-12-18T10:06:18;259.30;;;82.97;;
8407;SDS011;4241;48.452;9.216;2022-12-18T10:08:49;260.80;;;83.37;;
8407;SDS011;4241;48.452;9.216;2022-12-18T10:11:32;266.43;;;84.67;;
8407;SDS011;4241;48.452;9.216;2022-12-18T10:14:08;271.30;;;86.70;;
8407;SDS011;4241;48.452;9.216;2022-12-18T10:16:38;266.37;;;84.47;;
8407;SDS011;4241;48.452;9.216;2022-12-18T10:19:18;271.00;;;84.80;;
8407;SDS011;4241;48.452;9.216;2022-12-18T10:21:55;280.13;;;86.87;;
8407;SDS011;4241;48.452;9.216;2022-12-18T10:24:30;281.60;;;88.03;;
8407;SDS011;4241;48.452;9.216;2022-12-18T10:27:07;282.07;;;86.67;;
8407;SDS011;4241;48.452;9.216;2022-12-18T10:29:36;284.63;;;86.93;;
8407;SDS011;4241;48.452;9.216;2022-12-18T10:32:04;288.47;;;88.20;;
8407;SDS011;4241;48.452;9.216;2022-12-18T10:34:30;289.23;;;88.07;;
8407;SDS011;4241;48.452;9.216;2022-12-18T10:36:57;290.47;;;88.80;;
8407;SDS011;4241;48.452;9.216;2022-12-18T10:39:30;291.23;;;89.57;;
8407;SDS011;4241;48.452;9.216;2022-12-18T10:42:05;290.57;;;89.13;;
8407;SDS011;4241;48.452;9.216;2022-12-18T10:44:39;304.43;;;95.57;;
8407;SDS011;4241;48.452;9.216;2022-12-18T10:47:06;293.80;;;88.77;;
8407;SDS011;4241;48.452;9.216;2022-12-18T10:49:39;307.70;;;94.63;;
8407;SDS011;4241;48.452;9.216;2022-12-18T10:52:14;310.90;;;95.93;;
8407;SDS011;4241;48.452;9.216;2022-12-18T10:54:46;312.43;;;96.63;;
8407;SDS011;4241;48.452;9.216;2022-12-18T10:57:16;304.63;;;91.10;;
8407;SDS011;4241;48.452;9.216;2022-12-18T10:59:56;315.07;;;93.80;;
8407;SDS011;4241;48.452;9.216;2022-12-18T11:02:25;334.20;;;99.90;;
8407;SDS011;4241;48.452;9.216;2022-12-18T11:04:56;343.33;;;101.40;;
8407;SDS011;4241;48.452;9.216;2022-12-18T11:07:23;351.03;;;99.97;;
8407;SDS011;4241;48.452;9.216;2022-12-18T11:10:15;357.77;;;101.80;;
8407;SDS011;4241;48.452;9.216;2022-12-18T11:12:43;356.63;;;100.80;;
8407;SDS011;4241;48.452;9.216;2022-12-18T11:15:15;360.33;;;101.33;;
8407;SDS011;4241;48.452;9.216;2022-12-18T11:17:45;363.57;;;101.07;;
8407;SDS011;4241;48.452;9.216;2022-12-18T11:20:23;375.30;;;105.33;;
8407;SDS011;4241;48.452;9.216;2022-12-18T11:22:57;373.47;;;103.93;;
8407;SDS011;4241;48.452;9.216;2022-12-18T11:25:29;375.67;;;103.57;;
8407;SDS011;4241;48.452;9.216;2022-12-18T11:27:59;381.30;;;105.47;;
8407;SDS011;4241;48.452;9.216;2022-12-18T11:30:29;364.23;;;105.03;;
8407;SDS011;4241;48.452;9.216;2022-12-18T11:33:01;376.73;;;105.73;;
8407;SDS011;4241;48.452;9.216;2022-12-18T11:35:35;377.07;;;103.83;;
8407;SDS011;4241;48.452;9.216;2022-12-18T11:38:05;378.73;;;104.00;;
8407;SDS011;4241;48.452;9.216;2022-12-18T11:40:40;377.57;;;103.87;;
8407;SDS011;4241;48.452;9.216;2022-12-18T11:43:10;377.00;;;104.40;;
8407;SDS011;4241;48.452;9.216;2022-12-18T11:45:45;380.03;;;105.87;;
8407;SDS011;4241;48.452;9.216;2022-12-18T11:48:17;378.40;;;104.43;;
8407;SDS011;4241;48.452;9.216;2022-12-18T11:50:49;380.53;;;104.47;;
8407;SDS011;4241;48.452;9.216;2022-12-18T11:53:17;381.30;;;104.30;;
8407;SDS011;4241;48.452;9.216;2022-12-18T11:55:48;385.67;;;106.17;;
8407;SDS011;4241;48.452;9.216;2022-12-18T11:58:26;382.23;;;104.13;;
8407;SDS011;4241;48.452;9.216;2022-12-18T12:01:07;373.27;;;103.60;;
8407;SDS011;4241;48.452;9.216;2022-12-18T12:03:54;377.40;;;105.03;;
8407;SDS011;4241;48.452;9.216;2022-12-18T12:06:36;401.17;;;124.73;;
8407;SDS011;4241;48.452;9.216;2022-12-18T12:09:11;378.17;;;106.27;;
8407;SDS011;4241;48.452;9.216;2022-12-18T12:11:47;376.07;;;103.97;;
8407;SDS011;4241;48.452;9.216;2022-12-18T12:14:38;373.03;;;103.80;;
8407;SDS011;4241;48.452;9.216;2022-12-18T12:17:19;368.13;;;103.27;;
8407;SDS011;4241;48.452;9.216;2022-12-18T12:19:53;366.10;;;102.10;;
8407;SDS011;4241;48.452;9.216;2022-12-18T12:22:30;366.43;;;102.77;;
8407;SDS011;4241;48.452;9.216;2022-12-18T12:25:19;363.23;;;102.07;;
8407;SDS011;4241;48.452;9.216;2022-12-18T12:28:00;358.60;;;101.53;;
8407;SDS011;4241;48.452;9.216;2022-12-18T12:30:41;356.83;;;101.90;;
8407;SDS011;4241;48.452;9.216;2022-12-18T12:33:24;354.80;;;101.17;;
8407;SDS011;4241;48.452;9.216;2022-12-18T12:36:05;353.73;;;101.10;;
8407;SDS011;4241;48.452;9.216;2022-12-18T12:38:37;353.13;;;100.77;;
8407;SDS011;4241;48.452;9.216;2022-12-18T12:41:09;352.13;;;99.63;;
8407;SDS011;4241;48.452;9.216;2022-12-18T12:43:53;354.00;;;101.13;;
8407;SDS011;4241;48.452;9.216;2022-12-18T12:46:23;355.57;;;102.23;;
8407;SDS011;4241;48.452;9.216;2022-12-18T12:48:52;354.07;;;101.00;;
8407;SDS011;4241;48.452;9.216;2022-12-18T12:51:22;353.40;;;101.00;;
8407;SDS011;4241;48.452;9.216;2022-12-18T12:53:52;348.87;;;99.50;;
8407;SDS011;4241;48.452;9.216;2022-12-18T12:56:22;352.90;;;100.70;;
8407;SDS011;4241;48.452;9.216;2022-12-18T12:58:57;354.73;;;101.57;;
8407;SDS011;4241;48.452;9.216;2022-12-18T13:01:32;354.20;;;101.23;;
8407;SDS011;4241;48.452;9.216;2022-12-18T13:04:08;348.37;;;98.17;;
8407;SDS011;4241;48.452;9.216;2022-12-18T13:06:46;350.60;;;100.10;;
8407;SDS011;4241;48.452;9.216;2022-12-18T13:09:20;351.07;;;99.83;;
8407;SDS011;4241;48.452;9.216;2022-12-18T13:11:47;353.07;;;100.50;;
8407;SDS011;4241;48.452;9.216;2022-12-18T13:14:32;350.00;;;98.77;;
8407;SDS011;4241;48.452;9.216;2022-12-18T13:17:14;353.10;;;99.83;;
8407;SDS011;4241;48.452;9.216;2022-12-18T13:20:04;348.30;;;99.40;;
8407;SDS011;4241;48.452;9.216;2022-12-18T13:22:39;348.53;;;100.63;;
8407;SDS011;4241;48.452;9.216;2022-12-18T13:28:03;345.57;;;100.13;;
8407;SDS011;4241;48.452;9.216;2022-12-18T13:30:41;344.40;;;99.13;;
8407;SDS011;4241;48.452;9.216;2022-12-18T13:36:12;344.67;;;100.13;;
8407;SDS011;4241;48.452;9.216;2022-12-18T13:38:41;342.30;;;98.63;;
8407;SDS011;4241;48.452;9.216;2022-12-18T13:41:21;341.63;;;97.47;;
8407;SDS011;4241;48.452;9.216;2022-12-18T13:43:51;343.17;;;99.07;;
8407;SDS011;4241;48.452;9.216;2022-12-18T13:46:20;349.40;;;101.70;;
8407;SDS011;4241;48.452;9.216;2022-12-18T13:48:57;341.80;;;97.90;;
8407;SDS011;4241;48.452;9.216;2022-12-18T13:51:28;343.13;;;98.90;;
8407;SDS011;4241;48.452;9.216;2022-12-18T13:53:58;342.57;;;98.90;;
8407;SDS011;4241;48.452;9.216;2022-12-18T13:56:27;340.17;;;97.17;;
8407;SDS011;4241;48.452;9.216;2022-12-18T13:59:05;340.33;;;99.20;;
8407;SDS011;4241;48.452;9.216;2022-12-18T14:01:44;338.17;;;98.20;;
8407;SDS011;4241;48.452;9.216;2022-12-18T14:04:17;340.40;;;98.87;;
8407;SDS011;4241;48.452;9.216;2022-12-18T14:06:48;338.73;;;98.03;;
8407;SDS011;4241;48.452;9.216;2022-12-18T14:09:17;336.70;;;97.30;;
8407;SDS011;4241;48.452;9.216;2022-12-18T14:11:49;335.87;;;97.03;;
8407;SDS011;4241;48.452;9.216;2022-12-18T14:14:17;339.63;;;99.20;;
8407;SDS011;4241;48.452;9.216;2022-12-18T14:16:45;339.07;;;98.90;;
8407;SDS011;4241;48.452;9.216;2022-12-18T14:19:13;336.53;;;98.23;;
8407;SDS011;4241;48.452;9.216;2022-12-18T14:21:45;336.80;;;97.73;;
8407;SDS011;4241;48.452;9.216;2022-12-18T14:24:16;337.17;;;98.27;;
8407;SDS011;4241;48.452;9.216;2022-12-18T14:26:43;336.27;;;97.27;;
8407;SDS011;4241;48.452;9.216;2022-12-18T14:29:21;341.97;;;99.43;;
8407;SDS011;4241;48.452;9.216;2022-12-18T14:32:06;334.60;;;96.70;;
8407;SDS011;4241;48.452;9.216;2022-12-18T14:34:35;338.27;;;99.07;;
8407;SDS011;4241;48.452;9.216;2022-12-18T14:37:03;333.63;;;96.83;;
8407;SDS011;4241;48.452;9.216;2022-12-18T14:39:31;336.80;;;98.80;;
8407;SDS011;4241;48.452;9.216;2022-12-18T14:41:58;337.17;;;98.57;;
8407;SDS011;4241;48.452;9.216;2022-12-18T14:44:25;330.77;;;96.53;;
8407;SDS011;4241;48.452;9.216;2022-12-18T14:46:52;326.87;;;94.77;;
8407;SDS011;4241;48.452;9.216;2022-12-18T14:49:21;327.00;;;95.20;;
8407;SDS011;4241;48.452;9.216;2022-12-18T14:51:50;324.47;;;95.97;;
8407;SDS011;4241;48.452;9.216;2022-12-18T14:54:21;322.93;;;96.67;;
8407;SDS011;4241;48.452;9.216;2022-12-18T14:56:50;320.23;;;95.63;;
8407;SDS011;4241;48.452;9.216;2022-12-18T14:59:22;317.83;;;95.30;;